sensor_id;sensor_type;location;lat;lon;timestamp;P1;durP1;ratioP1;P2;durP2;ratioP2
39846;SDS011;25517;52.422;10.782;2023-08-17T00:02:12;4.40;;;2.70;;
39846;SDS011;25517;52.422;10.782;2023-08-17T00:04:38;4.70;;;2.45;;
39846;SDS011;25517;52.422;10.782;2023-08-17T00:07:04;4.15;;;2.50;;
39846;SDS011;25517;52.422;10.782;2023-08-17T00:09:31;5.20;;;2.72;;
39846;SDS011;25517;52.422;10.782;2023-08-17T00:11:56;4.63;;;2.80;;
39846;SDS011;25517;52.422;10.782;2023-08-17T00:14:22;3.70;;;2.78;;
39846;SDS011;25517;52.422;10.782;2023-08-17T00:16:49;5.00;;;2.80;;
39846;SDS011;25517;52.422;10.782;2023-08-17T00:19:15;4.82;;;2.28;;
39846;SDS011;25517;52.422;10.782;2023-08-17T00:21:41;9.82;;;2.95;;
39846;SDS011;25517;52.422;10.782;2023-08-17T00:24:06;6.90;;;3.00;;
39846;SDS011;25517;52.422;10.782;2023-08-17T00:26:32;7.15;;;3.50;;
39846;SDS011;25517;52.422;10.782;2023-08-17T00:28:58;6.97;;;2.88;;
39846;SDS011;25517;52.422;10.782;2023-08-17T00:31:23;8.15;;;3.10;;
39846;SDS011;25517;52.422;10.782;2023-08-17T00:33:49;3.20;;;2.42;;
39846;SDS011;25517;52.422;10.782;2023-08-17T00:36:14;11.98;;;3.53;;
39846;SDS011;25517;52.422;10.782;2023-08-17T00:38:40;4.55;;;2.67;;
39846;SDS011;25517;52.422;10.782;2023-08-17T00:41:06;6.97;;;3.10;;
39846;SDS011;25517;52.422;10.782;2023-08-17T00:43:31;4.82;;;3.13;;
39846;SDS011;25517;52.422;10.782;2023-08-17T00:45:57;3.65;;;3.00;;
39846;SDS011;25517;52.422;10.782;2023-08-17T00:48:22;7.13;;;3.08;;
39846;SDS011;25517;52.422;10.782;2023-08-17T00:50:49;7.35;;;3.20;;
39846;SDS011;25517;52.422;10.782;2023-08-17T00:53:17;3.92;;;3.00;;
39846;SDS011;25517;52.422;10.782;2023-08-17T00:55:43;7.97;;;3.40;;
39846;SDS011;25517;52.422;10.782;2023-08-17T00:58:09;6.95;;;3.13;;
39846;SDS011;25517;52.422;10.782;2023-08-17T01:00:35;5.57;;;3.28;;
39846;SDS011;25517;52.422;10.782;2023-08-17T01:03:00;14.02;;;4.30;;
39846;SDS011;25517;52.422;10.782;2023-08-17T01:05:26;8.63;;;3.25;;
39846;SDS011;25517;52.422;10.782;2023-08-17T01:07:51;7.50;;;3.67;;
39846;SDS011;25517;52.422;10.782;2023-08-17T01:10:17;10.15;;;3.50;;
39846;SDS011;25517;52.422;10.782;2023-08-17T01:15:35;8.57;;;4.38;;
39846;SDS011;25517;52.422;10.782;2023-08-17T01:20:37;8.18;;;4.78;;
39846;SDS011;25517;52.422;10.782;2023-08-17T01:23:06;13.27;;;5.10;;
39846;SDS011;25517;52.422;10.782;2023-08-17T01:25:32;10.02;;;5.13;;
39846;SDS011;25517;52.422;10.782;2023-08-17T01:28:02;7.20;;;4.23;;
39846;SDS011;25517;52.422;10.782;2023-08-17T01:30:28;8.20;;;5.40;;
39846;SDS011;25517;52.422;10.782;2023-08-17T01:33:03;9.48;;;5.78;;
39846;SDS011;25517;52.422;10.782;2023-08-17T01:35:38;7.97;;;4.70;;
39846;SDS011;25517;52.422;10.782;2023-08-17T01:38:09;10.93;;;5.68;;
39846;SDS011;25517;52.422;10.782;2023-08-17T01:40:39;6.60;;;5.43;;
39846;SDS011;25517;52.422;10.782;2023-08-17T01:43:06;12.48;;;6.32;;
39846;SDS011;25517;52.422;10.782;2023-08-17T01:45:32;7.28;;;6.25;;
39846;SDS011;25517;52.422;10.782;2023-08-17T01:47:58;9.48;;;6.22;;
39846;SDS011;25517;52.422;10.782;2023-08-17T01:50:24;7.50;;;6.15;;
39846;SDS011;25517;52.422;10.782;2023-08-17T01:52:49;10.50;;;7.07;;
39846;SDS011;25517;52.422;10.782;2023-08-17T01:55:20;8.98;;;7.05;;
39846;SDS011;25517;52.422;10.782;2023-08-17T01:57:47;8.88;;;6.82;;
39846;SDS011;25517;52.422;10.782;2023-08-17T02:00:13;8.73;;;7.05;;
39846;SDS011;25517;52.422;10.782;2023-08-17T02:02:39;12.52;;;6.70;;
39846;SDS011;25517;52.422;10.782;2023-08-17T02:05:04;10.15;;;6.82;;
39846;SDS011;25517;52.422;10.782;2023-08-17T02:07:30;11.32;;;8.13;;
39846;SDS011;25517;52.422;10.782;2023-08-17T02:09:57;10.88;;;7.75;;
39846;SDS011;25517;52.422;10.782;2023-08-17T02:12:22;13.75;;;9.15;;
39846;SDS011;25517;52.422;10.782;2023-08-17T02:14:48;17.33;;;8.63;;
39846;SDS011;25517;52.422;10.782;2023-08-17T02:17:13;13.13;;;9.23;;
39846;SDS011;25517;52.422;10.782;2023-08-17T02:19:41;14.88;;;9.10;;
39846;SDS011;25517;52.422;10.782;2023-08-17T02:22:07;19.40;;;11.52;;
39846;SDS011;25517;52.422;10.782;2023-08-17T02:24:32;13.75;;;8.98;;
39846;SDS011;25517;52.422;10.782;2023-08-17T02:26:58;14.48;;;9.88;;
39846;SDS011;25517;52.422;10.782;2023-08-17T02:29:24;12.48;;;8.38;;
39846;SDS011;25517;52.422;10.782;2023-08-17T02:31:49;18.80;;;11.13;;
39846;SDS011;25517;52.422;10.782;2023-08-17T02:34:15;18.95;;;12.27;;
39846;SDS011;25517;52.422;10.782;2023-08-17T02:36:40;24.05;;;11.65;;
39846;SDS011;25517;52.422;10.782;2023-08-17T02:39:06;15.98;;;12.10;;
39846;SDS011;25517;52.422;10.782;2023-08-17T02:41:31;15.13;;;10.57;;
39846;SDS011;25517;52.422;10.782;2023-08-17T02:43:57;11.98;;;10.13;;
39846;SDS011;25517;52.422;10.782;2023-08-17T02:46:23;11.60;;;10.15;;
39846;SDS011;25517;52.422;10.782;2023-08-17T02:48:48;16.23;;;11.45;;
39846;SDS011;25517;52.422;10.782;2023-08-17T02:51:14;12.02;;;9.95;;
39846;SDS011;25517;52.422;10.782;2023-08-17T02:53:40;14.55;;;12.82;;
39846;SDS011;25517;52.422;10.782;2023-08-17T02:56:06;15.50;;;12.43;;
39846;SDS011;25517;52.422;10.782;2023-08-17T02:58:31;14.93;;;13.27;;
39846;SDS011;25517;52.422;10.782;2023-08-17T03:00:57;19.15;;;14.65;;
39846;SDS011;25517;52.422;10.782;2023-08-17T03:03:22;17.67;;;15.20;;
39846;SDS011;25517;52.422;10.782;2023-08-17T03:05:48;16.52;;;14.32;;
39846;SDS011;25517;52.422;10.782;2023-08-17T03:08:13;19.38;;;14.57;;
39846;SDS011;25517;52.422;10.782;2023-08-17T03:10:39;20.20;;;15.60;;
39846;SDS011;25517;52.422;10.782;2023-08-17T03:13:04;18.27;;;14.63;;
39846;SDS011;25517;52.422;10.782;2023-08-17T03:18:23;17.00;;;13.85;;
39846;SDS011;25517;52.422;10.782;2023-08-17T03:20:49;19.42;;;16.00;;
39846;SDS011;25517;52.422;10.782;2023-08-17T03:23:14;20.88;;;18.35;;
39846;SDS011;25517;52.422;10.782;2023-08-17T03:25:40;17.00;;;15.18;;
39846;SDS011;25517;52.422;10.782;2023-08-17T03:28:05;16.60;;;14.60;;
39846;SDS011;25517;52.422;10.782;2023-08-17T03:30:31;18.45;;;16.33;;
39846;SDS011;25517;52.422;10.782;2023-08-17T03:32:56;21.65;;;17.13;;
39846;SDS011;25517;52.422;10.782;2023-08-17T03:35:22;24.23;;;18.58;;
39846;SDS011;25517;52.422;10.782;2023-08-17T03:37:47;21.92;;;17.20;;
39846;SDS011;25517;52.422;10.782;2023-08-17T03:40:13;21.63;;;19.17;;
39846;SDS011;25517;52.422;10.782;2023-08-17T03:42:39;25.65;;;18.85;;
39846;SDS011;25517;52.422;10.782;2023-08-17T03:45:05;21.95;;;17.23;;
39846;SDS011;25517;52.422;10.782;2023-08-17T03:47:30;21.85;;;17.42;;
39846;SDS011;25517;52.422;10.782;2023-08-17T03:49:56;27.25;;;19.70;;
39846;SDS011;25517;52.422;10.782;2023-08-17T03:52:21;22.05;;;17.73;;
39846;SDS011;25517;52.422;10.782;2023-08-17T03:54:47;29.23;;;20.90;;
39846;SDS011;25517;52.422;10.782;2023-08-17T03:57:12;32.65;;;21.58;;
39846;SDS011;25517;52.422;10.782;2023-08-17T03:59:38;22.35;;;19.30;;
39846;SDS011;25517;52.422;10.782;2023-08-17T04:02:03;43.38;;;25.63;;
39846;SDS011;25517;52.422;10.782;2023-08-17T04:04:29;26.92;;;21.13;;
39846;SDS011;25517;52.422;10.782;2023-08-17T04:06:54;35.53;;;23.70;;
39846;SDS011;25517;52.422;10.782;2023-08-17T04:09:20;27.55;;;21.05;;
39846;SDS011;25517;52.422;10.782;2023-08-17T04:11:46;44.28;;;29.83;;
39846;SDS011;25517;52.422;10.782;2023-08-17T04:14:11;34.03;;;23.35;;
39846;SDS011;25517;52.422;10.782;2023-08-17T04:16:37;32.00;;;22.58;;
39846;SDS011;25517;52.422;10.782;2023-08-17T04:19:03;37.42;;;25.50;;
39846;SDS011;25517;52.422;10.782;2023-08-17T04:21:28;34.45;;;24.33;;
39846;SDS011;25517;52.422;10.782;2023-08-17T04:23:54;32.90;;;23.60;;
39846;SDS011;25517;52.422;10.782;2023-08-17T04:26:19;30.67;;;23.00;;
39846;SDS011;25517;52.422;10.782;2023-08-17T04:28:45;26.55;;;21.08;;
39846;SDS011;25517;52.422;10.782;2023-08-17T04:31:11;29.92;;;23.05;;
39846;SDS011;25517;52.422;10.782;2023-08-17T04:33:36;29.02;;;22.63;;
39846;SDS011;25517;52.422;10.782;2023-08-17T04:36:02;29.52;;;23.55;;
39846;SDS011;25517;52.422;10.782;2023-08-17T04:38:28;24.13;;;20.42;;
39846;SDS011;25517;52.422;10.782;2023-08-17T04:40:53;29.20;;;21.65;;
39846;SDS011;25517;52.422;10.782;2023-08-17T04:43:19;28.40;;;21.75;;
39846;SDS011;25517;52.422;10.782;2023-08-17T04:45:44;27.35;;;20.30;;
39846;SDS011;25517;52.422;10.782;2023-08-17T04:48:12;25.77;;;20.33;;
39846;SDS011;25517;52.422;10.782;2023-08-17T04:50:38;27.55;;;21.73;;
39846;SDS011;25517;52.422;10.782;2023-08-17T04:53:04;25.17;;;20.90;;
39846;SDS011;25517;52.422;10.782;2023-08-17T04:55:29;27.55;;;20.83;;
39846;SDS011;25517;52.422;10.782;2023-08-17T04:57:57;24.38;;;20.60;;
39846;SDS011;25517;52.422;10.782;2023-08-17T05:00:22;28.02;;;20.63;;
39846;SDS011;25517;52.422;10.782;2023-08-17T05:02:52;23.13;;;20.00;;
39846;SDS011;25517;52.422;10.782;2023-08-17T05:05:19;24.80;;;20.10;;
39846;SDS011;25517;52.422;10.782;2023-08-17T05:07:45;29.27;;;22.58;;
39846;SDS011;25517;52.422;10.782;2023-08-17T05:10:10;25.00;;;20.67;;
39846;SDS011;25517;52.422;10.782;2023-08-17T05:12:36;26.00;;;21.65;;
39846;SDS011;25517;52.422;10.782;2023-08-17T05:15:01;25.83;;;20.88;;
39846;SDS011;25517;52.422;10.782;2023-08-17T05:17:27;20.95;;;18.75;;
39846;SDS011;25517;52.422;10.782;2023-08-17T05:19:52;20.95;;;17.65;;
39846;SDS011;25517;52.422;10.782;2023-08-17T05:22:18;28.75;;;21.30;;
39846;SDS011;25517;52.422;10.782;2023-08-17T05:24:44;25.90;;;20.90;;
39846;SDS011;25517;52.422;10.782;2023-08-17T05:27:11;21.85;;;19.48;;
39846;SDS011;25517;52.422;10.782;2023-08-17T05:29:36;23.58;;;20.52;;
39846;SDS011;25517;52.422;10.782;2023-08-17T05:32:02;21.17;;;18.98;;
39846;SDS011;25517;52.422;10.782;2023-08-17T05:34:28;23.13;;;20.13;;
39846;SDS011;25517;52.422;10.782;2023-08-17T05:36:53;21.88;;;19.55;;
39846;SDS011;25517;52.422;10.782;2023-08-17T05:39:19;22.80;;;20.23;;
39846;SDS011;25517;52.422;10.782;2023-08-17T05:41:44;33.30;;;22.80;;
39846;SDS011;25517;52.422;10.782;2023-08-17T05:44:10;30.08;;;22.45;;
39846;SDS011;25517;52.422;10.782;2023-08-17T05:46:35;23.10;;;20.30;;
39846;SDS011;25517;52.422;10.782;2023-08-17T05:49:01;27.67;;;22.02;;
39846;SDS011;25517;52.422;10.782;2023-08-17T05:51:27;23.42;;;19.63;;
39846;SDS011;25517;52.422;10.782;2023-08-17T05:53:53;25.90;;;20.80;;
39846;SDS011;25517;52.422;10.782;2023-08-17T05:56:19;33.15;;;21.75;;
39846;SDS011;25517;52.422;10.782;2023-08-17T05:58:44;26.38;;;20.60;;
39846;SDS011;25517;52.422;10.782;2023-08-17T06:01:10;30.77;;;21.85;;
39846;SDS011;25517;52.422;10.782;2023-08-17T06:03:36;26.90;;;21.70;;
39846;SDS011;25517;52.422;10.782;2023-08-17T06:06:03;23.27;;;19.70;;
39846;SDS011;25517;52.422;10.782;2023-08-17T06:08:28;27.95;;;20.10;;
39846;SDS011;25517;52.422;10.782;2023-08-17T06:10:54;20.98;;;18.67;;
39846;SDS011;25517;52.422;10.782;2023-08-17T06:13:20;26.33;;;21.27;;
39846;SDS011;25517;52.422;10.782;2023-08-17T06:15:46;30.92;;;22.67;;
39846;SDS011;25517;52.422;10.782;2023-08-17T06:18:11;27.73;;;19.88;;
39846;SDS011;25517;52.422;10.782;2023-08-17T06:20:37;22.63;;;18.52;;
39846;SDS011;25517;52.422;10.782;2023-08-17T06:23:02;26.23;;;20.35;;
39846;SDS011;25517;52.422;10.782;2023-08-17T06:25:28;28.13;;;20.25;;
39846;SDS011;25517;52.422;10.782;2023-08-17T06:27:54;23.38;;;18.20;;
39846;SDS011;25517;52.422;10.782;2023-08-17T06:30:19;27.52;;;19.52;;
39846;SDS011;25517;52.422;10.782;2023-08-17T06:32:45;28.02;;;19.48;;
39846;SDS011;25517;52.422;10.782;2023-08-17T06:35:10;27.23;;;18.73;;
39846;SDS011;25517;52.422;10.782;2023-08-17T06:37:36;28.27;;;19.35;;
39846;SDS011;25517;52.422;10.782;2023-08-17T06:40:05;23.23;;;19.52;;
39846;SDS011;25517;52.422;10.782;2023-08-17T06:42:32;25.27;;;19.70;;
39846;SDS011;25517;52.422;10.782;2023-08-17T06:44:57;26.42;;;19.60;;
39846;SDS011;25517;52.422;10.782;2023-08-17T06:47:23;35.13;;;23.50;;
39846;SDS011;25517;52.422;10.782;2023-08-17T06:49:48;24.45;;;20.23;;
39846;SDS011;25517;52.422;10.782;2023-08-17T06:52:14;33.15;;;21.35;;
39846;SDS011;25517;52.422;10.782;2023-08-17T06:54:39;28.45;;;22.08;;
39846;SDS011;25517;52.422;10.782;2023-08-17T06:57:05;26.40;;;20.80;;
39846;SDS011;25517;52.422;10.782;2023-08-17T06:59:31;22.95;;;18.35;;
39846;SDS011;25517;52.422;10.782;2023-08-17T07:01:58;29.00;;;21.92;;
39846;SDS011;25517;52.422;10.782;2023-08-17T07:04:24;26.48;;;21.55;;
39846;SDS011;25517;52.422;10.782;2023-08-17T07:06:49;34.83;;;24.17;;
39846;SDS011;25517;52.422;10.782;2023-08-17T07:09:15;30.40;;;22.98;;
39846;SDS011;25517;52.422;10.782;2023-08-17T07:11:41;29.77;;;23.38;;
39846;SDS011;25517;52.422;10.782;2023-08-17T07:14:06;25.88;;;21.42;;
39846;SDS011;25517;52.422;10.782;2023-08-17T07:16:32;25.35;;;22.55;;
39846;SDS011;25517;52.422;10.782;2023-08-17T07:18:58;29.80;;;24.05;;
39846;SDS011;25517;52.422;10.782;2023-08-17T07:21:23;27.42;;;22.38;;
39846;SDS011;25517;52.422;10.782;2023-08-17T07:23:50;31.23;;;23.42;;
39846;SDS011;25517;52.422;10.782;2023-08-17T07:26:16;36.97;;;25.45;;
39846;SDS011;25517;52.422;10.782;2023-08-17T07:28:43;35.97;;;24.67;;
39846;SDS011;25517;52.422;10.782;2023-08-17T07:31:09;34.33;;;24.70;;
39846;SDS011;25517;52.422;10.782;2023-08-17T07:33:35;30.75;;;21.73;;
39846;SDS011;25517;52.422;10.782;2023-08-17T07:36:00;30.00;;;23.75;;
39846;SDS011;25517;52.422;10.782;2023-08-17T07:38:26;31.80;;;23.60;;
39846;SDS011;25517;52.422;10.782;2023-08-17T07:40:51;43.28;;;27.08;;
39846;SDS011;25517;52.422;10.782;2023-08-17T07:43:17;48.70;;;27.95;;
39846;SDS011;25517;52.422;10.782;2023-08-17T07:45:42;36.67;;;23.58;;
39846;SDS011;25517;52.422;10.782;2023-08-17T07:48:08;32.63;;;24.15;;
39846;SDS011;25517;52.422;10.782;2023-08-17T07:50:33;32.05;;;24.23;;
39846;SDS011;25517;52.422;10.782;2023-08-17T07:52:59;46.72;;;28.13;;
39846;SDS011;25517;52.422;10.782;2023-08-17T07:55:26;33.60;;;25.08;;
39846;SDS011;25517;52.422;10.782;2023-08-17T07:57:51;40.72;;;28.33;;
39846;SDS011;25517;52.422;10.782;2023-08-17T08:00:17;41.38;;;29.20;;
39846;SDS011;25517;52.422;10.782;2023-08-17T08:02:43;53.72;;;31.83;;
39846;SDS011;25517;52.422;10.782;2023-08-17T08:05:08;50.20;;;31.20;;
39846;SDS011;25517;52.422;10.782;2023-08-17T08:07:34;32.42;;;26.42;;
39846;SDS011;25517;52.422;10.782;2023-08-17T08:09:59;46.97;;;30.38;;
39846;SDS011;25517;52.422;10.782;2023-08-17T08:12:25;48.95;;;30.90;;
39846;SDS011;25517;52.422;10.782;2023-08-17T08:14:50;39.42;;;28.27;;
39846;SDS011;25517;52.422;10.782;2023-08-17T08:17:16;36.60;;;27.15;;
39846;SDS011;25517;52.422;10.782;2023-08-17T08:19:41;44.40;;;29.80;;
39846;SDS011;25517;52.422;10.782;2023-08-17T08:22:07;42.15;;;27.75;;
39846;SDS011;25517;52.422;10.782;2023-08-17T08:24:32;39.38;;;26.15;;
39846;SDS011;25517;52.422;10.782;2023-08-17T08:26:59;33.28;;;22.75;;
39846;SDS011;25517;52.422;10.782;2023-08-17T08:29:26;33.55;;;25.17;;
39846;SDS011;25517;52.422;10.782;2023-08-17T08:31:52;43.45;;;28.73;;
39846;SDS011;25517;52.422;10.782;2023-08-17T08:34:18;30.60;;;23.85;;
39846;SDS011;25517;52.422;10.782;2023-08-17T08:36:43;34.05;;;24.88;;
39846;SDS011;25517;52.422;10.782;2023-08-17T08:39:09;36.53;;;23.23;;
39846;SDS011;25517;52.422;10.782;2023-08-17T08:41:35;30.27;;;22.83;;
39846;SDS011;25517;52.422;10.782;2023-08-17T08:44:02;34.80;;;22.73;;
39846;SDS011;25517;52.422;10.782;2023-08-17T08:46:28;32.60;;;24.45;;
39846;SDS011;25517;52.422;10.782;2023-08-17T08:48:56;41.53;;;24.55;;
39846;SDS011;25517;52.422;10.782;2023-08-17T08:51:23;28.33;;;19.92;;
39846;SDS011;25517;52.422;10.782;2023-08-17T08:53:54;25.38;;;20.00;;
39846;SDS011;25517;52.422;10.782;2023-08-17T08:56:27;22.02;;;18.20;;
39846;SDS011;25517;52.422;10.782;2023-08-17T08:58:55;24.48;;;17.95;;
39846;SDS011;25517;52.422;10.782;2023-08-17T09:01:20;24.38;;;17.50;;
39846;SDS011;25517;52.422;10.782;2023-08-17T09:03:46;19.40;;;14.63;;
39846;SDS011;25517;52.422;10.782;2023-08-17T09:06:13;24.42;;;15.20;;
39846;SDS011;25517;52.422;10.782;2023-08-17T09:08:39;22.45;;;14.57;;
39846;SDS011;25517;52.422;10.782;2023-08-17T09:11:06;19.75;;;15.23;;
39846;SDS011;25517;52.422;10.782;2023-08-17T09:13:31;19.83;;;14.43;;
39846;SDS011;25517;52.422;10.782;2023-08-17T09:15:57;21.55;;;15.20;;
39846;SDS011;25517;52.422;10.782;2023-08-17T09:18:25;23.25;;;15.60;;
39846;SDS011;25517;52.422;10.782;2023-08-17T09:20:51;22.88;;;16.08;;
39846;SDS011;25517;52.422;10.782;2023-08-17T09:23:20;19.15;;;14.73;;
39846;SDS011;25517;52.422;10.782;2023-08-17T09:25:47;15.25;;;13.55;;
39846;SDS011;25517;52.422;10.782;2023-08-17T09:28:18;16.58;;;12.52;;
39846;SDS011;25517;52.422;10.782;2023-08-17T09:30:51;14.88;;;12.05;;
39846;SDS011;25517;52.422;10.782;2023-08-17T09:33:23;16.65;;;12.32;;
39846;SDS011;25517;52.422;10.782;2023-08-17T09:35:50;15.43;;;12.55;;
39846;SDS011;25517;52.422;10.782;2023-08-17T09:38:17;15.43;;;13.02;;
39846;SDS011;25517;52.422;10.782;2023-08-17T09:40:43;15.00;;;10.75;;
39846;SDS011;25517;52.422;10.782;2023-08-17T09:43:09;15.35;;;10.07;;
39846;SDS011;25517;52.422;10.782;2023-08-17T09:45:35;11.77;;;10.07;;
39846;SDS011;25517;52.422;10.782;2023-08-17T09:48:05;15.32;;;10.52;;
39846;SDS011;25517;52.422;10.782;2023-08-17T09:50:32;14.80;;;10.63;;
39846;SDS011;25517;52.422;10.782;2023-08-17T09:52:57;11.65;;;9.23;;
39846;SDS011;25517;52.422;10.782;2023-08-17T09:55:23;13.02;;;8.98;;
39846;SDS011;25517;52.422;10.782;2023-08-17T09:57:49;10.32;;;8.63;;
39846;SDS011;25517;52.422;10.782;2023-08-17T10:00:16;13.70;;;9.38;;
39846;SDS011;25517;52.422;10.782;2023-08-17T10:02:43;10.27;;;9.18;;
39846;SDS011;25517;52.422;10.782;2023-08-17T10:05:11;12.93;;;9.00;;
39846;SDS011;25517;52.422;10.782;2023-08-17T10:07:38;12.88;;;9.27;;
39846;SDS011;25517;52.422;10.782;2023-08-17T10:10:07;9.70;;;7.80;;
39846;SDS011;25517;52.422;10.782;2023-08-17T10:12:37;15.55;;;8.32;;
39846;SDS011;25517;52.422;10.782;2023-08-17T10:15:10;10.65;;;8.43;;
39846;SDS011;25517;52.422;10.782;2023-08-17T10:17:39;12.38;;;8.65;;
39846;SDS011;25517;52.422;10.782;2023-08-17T10:20:14;21.05;;;8.93;;
39846;SDS011;25517;52.422;10.782;2023-08-17T10:22:47;12.40;;;7.95;;
39846;SDS011;25517;52.422;10.782;2023-08-17T10:25:19;14.85;;;8.95;;
39846;SDS011;25517;52.422;10.782;2023-08-17T10:27:46;14.43;;;8.57;;
39846;SDS011;25517;52.422;10.782;2023-08-17T10:30:13;15.73;;;9.57;;
39846;SDS011;25517;52.422;10.782;2023-08-17T10:32:39;14.63;;;9.57;;
39846;SDS011;25517;52.422;10.782;2023-08-17T10:35:10;13.18;;;9.65;;
39846;SDS011;25517;52.422;10.782;2023-08-17T10:37:36;15.60;;;8.95;;
39846;SDS011;25517;52.422;10.782;2023-08-17T10:40:03;15.18;;;8.75;;
39846;SDS011;25517;52.422;10.782;2023-08-17T10:42:30;10.05;;;8.23;;
39846;SDS011;25517;52.422;10.782;2023-08-17T10:44:57;12.00;;;7.50;;
39846;SDS011;25517;52.422;10.782;2023-08-17T10:49:57;16.13;;;8.43;;
39846;SDS011;25517;52.422;10.782;2023-08-17T10:52:25;13.68;;;7.97;;
39846;SDS011;25517;52.422;10.782;2023-08-17T10:55:03;11.02;;;7.78;;
39846;SDS011;25517;52.422;10.782;2023-08-17T10:57:34;11.48;;;8.20;;
39846;SDS011;25517;52.422;10.782;2023-08-17T11:00:14;16.40;;;9.45;;
39846;SDS011;25517;52.422;10.782;2023-08-17T11:02:42;12.82;;;7.85;;
39846;SDS011;25517;52.422;10.782;2023-08-17T11:05:09;11.88;;;7.90;;
39846;SDS011;25517;52.422;10.782;2023-08-17T11:07:42;9.30;;;7.35;;
39846;SDS011;25517;52.422;10.782;2023-08-17T11:12:43;13.60;;;9.95;;
39846;SDS011;25517;52.422;10.782;2023-08-17T11:15:09;11.75;;;8.52;;
39846;SDS011;25517;52.422;10.782;2023-08-17T11:17:35;19.58;;;10.13;;
39846;SDS011;25517;52.422;10.782;2023-08-17T11:20:01;14.20;;;8.35;;
39846;SDS011;25517;52.422;10.782;2023-08-17T11:22:27;15.13;;;8.70;;
39846;SDS011;25517;52.422;10.782;2023-08-17T11:24:53;17.83;;;9.45;;
39846;SDS011;25517;52.422;10.782;2023-08-17T11:27:18;11.05;;;8.75;;
39846;SDS011;25517;52.422;10.782;2023-08-17T11:29:45;12.60;;;8.68;;
39846;SDS011;25517;52.422;10.782;2023-08-17T11:32:10;15.43;;;8.93;;
39846;SDS011;25517;52.422;10.782;2023-08-17T11:34:37;9.55;;;8.15;;
39846;SDS011;25517;52.422;10.782;2023-08-17T11:37:03;12.30;;;8.20;;
39846;SDS011;25517;52.422;10.782;2023-08-17T11:39:32;12.10;;;8.15;;
39846;SDS011;25517;52.422;10.782;2023-08-17T11:41:58;12.05;;;8.35;;
39846;SDS011;25517;52.422;10.782;2023-08-17T11:44:25;10.75;;;8.45;;
39846;SDS011;25517;52.422;10.782;2023-08-17T11:46:50;15.32;;;9.65;;
39846;SDS011;25517;52.422;10.782;2023-08-17T11:49:16;10.77;;;8.60;;
39846;SDS011;25517;52.422;10.782;2023-08-17T11:51:42;9.85;;;8.25;;
39846;SDS011;25517;52.422;10.782;2023-08-17T11:54:08;17.73;;;8.68;;
39846;SDS011;25517;52.422;10.782;2023-08-17T11:56:34;13.07;;;8.48;;
39846;SDS011;25517;52.422;10.782;2023-08-17T11:59:07;10.02;;;8.45;;
39846;SDS011;25517;52.422;10.782;2023-08-17T12:01:36;13.13;;;8.88;;
39846;SDS011;25517;52.422;10.782;2023-08-17T12:04:03;9.98;;;8.38;;
39846;SDS011;25517;52.422;10.782;2023-08-17T12:06:30;8.48;;;7.60;;
39846;SDS011;25517;52.422;10.782;2023-08-17T12:08:55;9.32;;;7.47;;
39846;SDS011;25517;52.422;10.782;2023-08-17T12:11:23;11.02;;;7.85;;
39846;SDS011;25517;52.422;10.782;2023-08-17T12:13:50;15.27;;;8.52;;
39846;SDS011;25517;52.422;10.782;2023-08-17T12:16:17;9.15;;;7.88;;
39846;SDS011;25517;52.422;10.782;2023-08-17T12:18:44;14.20;;;7.95;;
39846;SDS011;25517;52.422;10.782;2023-08-17T12:21:13;8.33;;;6.80;;
39846;SDS011;25517;52.422;10.782;2023-08-17T12:23:38;12.60;;;7.90;;
39846;SDS011;25517;52.422;10.782;2023-08-17T12:26:04;9.02;;;5.90;;
39846;SDS011;25517;52.422;10.782;2023-08-17T12:28:30;10.30;;;6.70;;
39846;SDS011;25517;52.422;10.782;2023-08-17T12:31:02;5.38;;;4.88;;
39846;SDS011;25517;52.422;10.782;2023-08-17T12:33:28;7.00;;;5.50;;
39846;SDS011;25517;52.422;10.782;2023-08-17T12:35:54;9.57;;;5.10;;
39846;SDS011;25517;52.422;10.782;2023-08-17T12:38:21;8.15;;;5.00;;
39846;SDS011;25517;52.422;10.782;2023-08-17T12:40:48;9.07;;;4.90;;
39846;SDS011;25517;52.422;10.782;2023-08-17T12:43:14;9.25;;;5.38;;
39846;SDS011;25517;52.422;10.782;2023-08-17T12:45:39;7.05;;;4.97;;
39846;SDS011;25517;52.422;10.782;2023-08-17T12:48:05;10.00;;;4.70;;
39846;SDS011;25517;52.422;10.782;2023-08-17T12:50:30;6.88;;;4.57;;
39846;SDS011;25517;52.422;10.782;2023-08-17T12:52:56;5.40;;;4.90;;
39846;SDS011;25517;52.422;10.782;2023-08-17T12:55:22;6.57;;;4.40;;
39846;SDS011;25517;52.422;10.782;2023-08-17T12:57:47;6.63;;;4.78;;
39846;SDS011;25517;52.422;10.782;2023-08-17T13:00:13;6.03;;;5.28;;
39846;SDS011;25517;52.422;10.782;2023-08-17T13:02:39;7.03;;;5.05;;
39846;SDS011;25517;52.422;10.782;2023-08-17T13:05:04;7.82;;;5.00;;
39846;SDS011;25517;52.422;10.782;2023-08-17T13:07:30;5.22;;;4.53;;
39846;SDS011;25517;52.422;10.782;2023-08-17T13:09:56;7.00;;;5.10;;
39846;SDS011;25517;52.422;10.782;2023-08-17T13:12:21;6.43;;;4.97;;
39846;SDS011;25517;52.422;10.782;2023-08-17T13:14:47;6.75;;;4.90;;
39846;SDS011;25517;52.422;10.782;2023-08-17T13:17:12;7.45;;;5.28;;
39846;SDS011;25517;52.422;10.782;2023-08-17T13:19:39;5.65;;;4.20;;
39846;SDS011;25517;52.422;10.782;2023-08-17T13:22:05;6.40;;;5.75;;
39846;SDS011;25517;52.422;10.782;2023-08-17T13:24:30;9.77;;;5.22;;
39846;SDS011;25517;52.422;10.782;2023-08-17T13:26:56;12.40;;;5.95;;
39846;SDS011;25517;52.422;10.782;2023-08-17T13:29:22;7.18;;;5.63;;
39846;SDS011;25517;52.422;10.782;2023-08-17T13:31:47;8.27;;;5.38;;
39846;SDS011;25517;52.422;10.782;2023-08-17T13:34:13;6.53;;;5.35;;
39846;SDS011;25517;52.422;10.782;2023-08-17T13:36:39;6.80;;;5.28;;
39846;SDS011;25517;52.422;10.782;2023-08-17T13:39:05;8.20;;;6.13;;
39846;SDS011;25517;52.422;10.782;2023-08-17T13:41:31;9.40;;;5.72;;
39846;SDS011;25517;52.422;10.782;2023-08-17T13:43:57;8.00;;;6.30;;
39846;SDS011;25517;52.422;10.782;2023-08-17T13:46:22;7.03;;;5.15;;
39846;SDS011;25517;52.422;10.782;2023-08-17T13:48:48;8.95;;;5.28;;
39846;SDS011;25517;52.422;10.782;2023-08-17T13:51:14;6.40;;;5.75;;
39846;SDS011;25517;52.422;10.782;2023-08-17T13:53:39;8.77;;;6.72;;
39846;SDS011;25517;52.422;10.782;2023-08-17T13:56:05;8.07;;;6.00;;
39846;SDS011;25517;52.422;10.782;2023-08-17T13:58:31;9.88;;;6.15;;
39846;SDS011;25517;52.422;10.782;2023-08-17T14:00:56;9.55;;;6.40;;
39846;SDS011;25517;52.422;10.782;2023-08-17T14:03:22;7.60;;;5.60;;
39846;SDS011;25517;52.422;10.782;2023-08-17T14:05:48;8.38;;;5.50;;
39846;SDS011;25517;52.422;10.782;2023-08-17T14:08:13;6.65;;;5.55;;
39846;SDS011;25517;52.422;10.782;2023-08-17T14:10:39;7.13;;;5.60;;
39846;SDS011;25517;52.422;10.782;2023-08-17T14:13:05;7.07;;;5.38;;
39846;SDS011;25517;52.422;10.782;2023-08-17T14:15:30;9.00;;;5.82;;
39846;SDS011;25517;52.422;10.782;2023-08-17T14:17:56;7.18;;;5.72;;
39846;SDS011;25517;52.422;10.782;2023-08-17T14:20:21;6.78;;;5.85;;
39846;SDS011;25517;52.422;10.782;2023-08-17T14:22:47;8.27;;;5.35;;
39846;SDS011;25517;52.422;10.782;2023-08-17T14:25:13;9.70;;;6.45;;
39846;SDS011;25517;52.422;10.782;2023-08-17T14:27:38;7.07;;;5.53;;